Port Hardy Airport
CYZT : rendu visible

Aérodrome :











RETROUVEZ-NOUS SUR...

 
LOGIN :

S'inscrire | Disclaimer

   EN    FR    IT 

 









Légende :    VFR   VFR Marginal   IFR   IFR Intensif   IFR Très Intensif
Visi : 
Plafond : 
>= 8 km
>= 3000ft
5 à 8 km
1000 à 3000 ft
1500m à 5 km
500 à 1000 ft
800 à 1500m
200 à 500 ft
< 800m
< 200 ft
Symboles :   Orages  Brouillard  Fortes neiges  Fortes précipitations  Vent > 20 kt






- Altitude de l'aérodrome : 71 ft
- Code IATA : YZT


CYZT - Port Hardy

DERNIER METAR :
  • 261353Z 10021G28KT 6SM RA BR FEW015 BKN027 OVC046 07/05 A2940 RMK SF1SC5SC2 SLP958

METARs EXPIRÉS :
  • 261300Z 09021G30KT 6SM -RA BR SCT019 OVC026 07/05 A2943 RMK SC3SC5 SLP966
  • 261200Z 10013KT 8SM -RA FEW015 OVC026 07/05 A2946 RMK SF1SC7 PRESFR SLP979
  • 261145Z 10010KT 8SM -RA FEW015 OVC026 07/06 A2948 RMK SF1SC7 SLP985
  • 261116Z 11013KT 8SM RA FEW015 BKN031 OVC038 07/05 A2951 RMK SF1SC5SC2 SLP994
  • 261100Z 11014G21KT 8SM -RA BKN031 OVC048 07/05 A2952 RMK SC5SC3 PRESFR SLP999

TAF TAF CYZT
Valide du 26 à 13h jusqu'au 27 à 01h UTC


261245Z 2613/2701 11012G22KT P6SM -RA SCT015 OVC025
TEMPO 2613/2615 3SM -SHRA BR SCT006 OVC015
FM261500 11012KT P6SM SCT020 BKN030
TEMPO 2615/2701 5SM -SHRA BR OVC020
BECMG 2616/2618 14010G20KT RMK NXT FCST BY 261900Z



MET'MAP, la Météo Aéronautique d'un coup d'oeil ! - Copyright ORBIFLY Décembre 2007 - Disclaimer

ORBIFLY MET'MAP TEAM :

Programmation & Développement : Alexandra Zaïnal
Sur une idée originale de : Baudouin d'Aumeries
Assistance à la programmation : Marc-Olivier Méhu
Soutien technique & logistique : Manuel Goepfert

Contact : metmap@orbifly.com




SOURCES & CREDITS :

   NOAA       Earth
Advisory